Terminal Aerodrome Forecast
Issued by NWS

Home | Current Version | Previous Version | Graphics & Text | Print | Product List | Glossary On
Versions: 1 2 3 4 5 6 7 8 9 10 11 12 13 14 15
554
FTUS43 KICT 191120
TAFSLN
TAF
KSLN 191120Z 1912/2012 VRB03KT P6SM SKC
     FM191800 19012KT P6SM FEW250
     FM200600 17010KT P6SM FEW250 WS020/19040KT
     FM201100 19014G22KT P6SM SCT250=

USA.gov is the U.S. government's official web portal to all federal, state and local government web resources and services.